sensor_id;sensor_type;location;lat;lon;timestamp;P1;durP1;ratioP1;P2;durP2;ratioP2
75087;SDS011;63664;44.868;40.600;2023-02-16T00:01:55;12.40;;;5.60;;
75087;SDS011;63664;44.868;40.600;2023-02-16T00:04:26;12.07;;;5.20;;
75087;SDS011;63664;44.868;40.600;2023-02-16T00:06:57;10.00;;;5.75;;
75087;SDS011;63664;44.868;40.600;2023-02-16T00:09:23;11.00;;;5.28;;
75087;SDS011;63664;44.868;40.600;2023-02-16T00:11:50;9.45;;;5.07;;
75087;SDS011;63664;44.868;40.600;2023-02-16T00:14:38;10.52;;;4.53;;
75087;SDS011;63664;44.868;40.600;2023-02-16T00:17:05;8.88;;;4.90;;
75087;SDS011;63664;44.868;40.600;2023-02-16T00:22:05;11.77;;;5.57;;
75087;SDS011;63664;44.868;40.600;2023-02-16T00:24:34;9.93;;;5.57;;
75087;SDS011;63664;44.868;40.600;2023-02-16T00:27:08;9.85;;;5.13;;
75087;SDS011;63664;44.868;40.600;2023-02-16T00:29:40;11.55;;;4.72;;
75087;SDS011;63664;44.868;40.600;2023-02-16T00:32:09;8.45;;;4.97;;
75087;SDS011;63664;44.868;40.600;2023-02-16T00:34:43;9.23;;;5.35;;
75087;SDS011;63664;44.868;40.600;2023-02-16T00:37:10;6.65;;;4.13;;
75087;SDS011;63664;44.868;40.600;2023-02-16T00:39:40;9.15;;;5.32;;
75087;SDS011;63664;44.868;40.600;2023-02-16T00:42:24;11.15;;;4.85;;
75087;SDS011;63664;44.868;40.600;2023-02-16T00:44:58;7.18;;;4.45;;
75087;SDS011;63664;44.868;40.600;2023-02-16T00:47:35;13.48;;;5.30;;
75087;SDS011;63664;44.868;40.600;2023-02-16T00:50:26;8.32;;;4.07;;
75087;SDS011;63664;44.868;40.600;2023-02-16T00:52:54;10.02;;;4.55;;
75087;SDS011;63664;44.868;40.600;2023-02-16T00:55:23;8.35;;;4.32;;
75087;SDS011;63664;44.868;40.600;2023-02-16T00:58:07;10.43;;;5.10;;
75087;SDS011;63664;44.868;40.600;2023-02-16T01:00:50;10.20;;;5.13;;
75087;SDS011;63664;44.868;40.600;2023-02-16T01:03:23;9.60;;;4.15;;
75087;SDS011;63664;44.868;40.600;2023-02-16T01:05:58;8.02;;;4.45;;
75087;SDS011;63664;44.868;40.600;2023-02-16T01:08:43;10.10;;;5.47;;
75087;SDS011;63664;44.868;40.600;2023-02-16T01:11:31;9.07;;;5.40;;
75087;SDS011;63664;44.868;40.600;2023-02-16T01:13:57;10.73;;;5.15;;
75087;SDS011;63664;44.868;40.600;2023-02-16T01:16:25;11.10;;;5.38;;
75087;SDS011;63664;44.868;40.600;2023-02-16T01:19:05;11.43;;;6.50;;
75087;SDS011;63664;44.868;40.600;2023-02-16T01:21:32;12.35;;;6.03;;
75087;SDS011;63664;44.868;40.600;2023-02-16T01:24:00;12.15;;;6.03;;
75087;SDS011;63664;44.868;40.600;2023-02-16T01:26:29;15.18;;;5.93;;
75087;SDS011;63664;44.868;40.600;2023-02-16T01:29:02;11.65;;;6.05;;
75087;SDS011;63664;44.868;40.600;2023-02-16T01:31:28;10.73;;;6.22;;
75087;SDS011;63664;44.868;40.600;2023-02-16T01:33:54;16.05;;;6.72;;
75087;SDS011;63664;44.868;40.600;2023-02-16T01:36:28;10.02;;;5.93;;
75087;SDS011;63664;44.868;40.600;2023-02-16T01:39:05;12.70;;;6.28;;
75087;SDS011;63664;44.868;40.600;2023-02-16T01:41:49;13.25;;;6.65;;
75087;SDS011;63664;44.868;40.600;2023-02-16T01:44:46;15.65;;;7.53;;
75087;SDS011;63664;44.868;40.600;2023-02-16T01:49:42;20.15;;;10.60;;
75087;SDS011;63664;44.868;40.600;2023-02-16T01:52:14;20.10;;;10.20;;
75087;SDS011;63664;44.868;40.600;2023-02-16T01:57:48;21.90;;;10.13;;
75087;SDS011;63664;44.868;40.600;2023-02-16T02:03:24;24.85;;;11.30;;
75087;SDS011;63664;44.868;40.600;2023-02-16T02:06:32;22.20;;;10.98;;
75087;SDS011;63664;44.868;40.600;2023-02-16T02:11:42;22.33;;;11.05;;
75087;SDS011;63664;44.868;40.600;2023-02-16T02:14:18;22.73;;;11.07;;
75087;SDS011;63664;44.868;40.600;2023-02-16T02:16:54;21.63;;;9.48;;
75087;SDS011;63664;44.868;40.600;2023-02-16T02:19:25;17.85;;;10.70;;
75087;SDS011;63664;44.868;40.600;2023-02-16T02:31:29;12.40;;;6.63;;
75087;SDS011;63664;44.868;40.600;2023-02-16T02:39:32;13.63;;;5.20;;
75087;SDS011;63664;44.868;40.600;2023-02-16T02:42:20;13.35;;;6.90;;
75087;SDS011;63664;44.868;40.600;2023-02-16T02:45:03;12.82;;;7.40;;
75087;SDS011;63664;44.868;40.600;2023-02-16T02:47:47;12.25;;;6.30;;
75087;SDS011;63664;44.868;40.600;2023-02-16T02:53:38;16.48;;;7.85;;
75087;SDS011;63664;44.868;40.600;2023-02-16T02:56:09;15.00;;;7.07;;
75087;SDS011;63664;44.868;40.600;2023-02-16T02:59:01;20.05;;;6.05;;
75087;SDS011;63664;44.868;40.600;2023-02-16T03:01:55;10.73;;;6.45;;
75087;SDS011;63664;44.868;40.600;2023-02-16T03:04:25;11.50;;;6.60;;
75087;SDS011;63664;44.868;40.600;2023-02-16T03:06:55;15.50;;;6.70;;
75087;SDS011;63664;44.868;40.600;2023-02-16T03:09:24;16.83;;;5.70;;
75087;SDS011;63664;44.868;40.600;2023-02-16T03:11:52;20.88;;;7.93;;
75087;SDS011;63664;44.868;40.600;2023-02-16T03:14:40;20.30;;;8.85;;
75087;SDS011;63664;44.868;40.600;2023-02-16T03:17:16;18.25;;;8.82;;
75087;SDS011;63664;44.868;40.600;2023-02-16T03:20:05;20.88;;;9.52;;
75087;SDS011;63664;44.868;40.600;2023-02-16T03:25:44;27.05;;;9.77;;
75087;SDS011;63664;44.868;40.600;2023-02-16T03:28:30;16.55;;;6.38;;
75087;SDS011;63664;44.868;40.600;2023-02-16T03:31:19;9.57;;;5.63;;
75087;SDS011;63664;44.868;40.600;2023-02-16T03:33:49;10.52;;;4.45;;
75087;SDS011;63664;44.868;40.600;2023-02-16T03:36:22;10.77;;;6.32;;
75087;SDS011;63664;44.868;40.600;2023-02-16T03:38:53;8.98;;;5.18;;
75087;SDS011;63664;44.868;40.600;2023-02-16T03:41:20;13.90;;;6.07;;
75087;SDS011;63664;44.868;40.600;2023-02-16T03:43:52;15.38;;;5.28;;
75087;SDS011;63664;44.868;40.600;2023-02-16T03:46:20;10.20;;;5.10;;
75087;SDS011;63664;44.868;40.600;2023-02-16T03:48:49;12.30;;;5.20;;
75087;SDS011;63664;44.868;40.600;2023-02-16T03:53:46;8.15;;;4.90;;
75087;SDS011;63664;44.868;40.600;2023-02-16T03:56:14;21.23;;;8.48;;
75087;SDS011;63664;44.868;40.600;2023-02-16T03:58:41;18.00;;;7.55;;
75087;SDS011;63664;44.868;40.600;2023-02-16T04:01:07;9.48;;;5.63;;
75087;SDS011;63664;44.868;40.600;2023-02-16T04:03:33;12.23;;;5.75;;
75087;SDS011;63664;44.868;40.600;2023-02-16T04:06:00;12.70;;;6.38;;
75087;SDS011;63664;44.868;40.600;2023-02-16T04:08:26;10.95;;;5.85;;
75087;SDS011;63664;44.868;40.600;2023-02-16T04:10:58;10.57;;;5.53;;
75087;SDS011;63664;44.868;40.600;2023-02-16T04:13:25;9.50;;;5.13;;
75087;SDS011;63664;44.868;40.600;2023-02-16T04:15:53;11.15;;;5.70;;
75087;SDS011;63664;44.868;40.600;2023-02-16T04:18:22;8.52;;;5.25;;
75087;SDS011;63664;44.868;40.600;2023-02-16T04:20:48;11.05;;;5.95;;
75087;SDS011;63664;44.868;40.600;2023-02-16T04:23:17;9.05;;;5.63;;
75087;SDS011;63664;44.868;40.600;2023-02-16T04:25:43;9.90;;;6.07;;
75087;SDS011;63664;44.868;40.600;2023-02-16T04:28:09;8.68;;;5.38;;
75087;SDS011;63664;44.868;40.600;2023-02-16T04:30:35;11.07;;;5.63;;
75087;SDS011;63664;44.868;40.600;2023-02-16T04:33:01;10.13;;;6.00;;
75087;SDS011;63664;44.868;40.600;2023-02-16T04:35:33;9.75;;;6.28;;
75087;SDS011;63664;44.868;40.600;2023-02-16T04:38:00;8.32;;;5.60;;
75087;SDS011;63664;44.868;40.600;2023-02-16T04:40:28;10.40;;;5.15;;
75087;SDS011;63664;44.868;40.600;2023-02-16T04:42:55;13.30;;;4.82;;
75087;SDS011;63664;44.868;40.600;2023-02-16T04:45:23;8.30;;;4.70;;
75087;SDS011;63664;44.868;40.600;2023-02-16T04:47:55;8.95;;;5.30;;
75087;SDS011;63664;44.868;40.600;2023-02-16T04:50:22;8.65;;;5.13;;
75087;SDS011;63664;44.868;40.600;2023-02-16T04:52:48;8.82;;;5.53;;
75087;SDS011;63664;44.868;40.600;2023-02-16T04:55:14;10.35;;;5.63;;
75087;SDS011;63664;44.868;40.600;2023-02-16T04:57:41;13.70;;;6.32;;
75087;SDS011;63664;44.868;40.600;2023-02-16T05:00:07;11.30;;;6.78;;
75087;SDS011;63664;44.868;40.600;2023-02-16T05:02:36;8.57;;;5.95;;
75087;SDS011;63664;44.868;40.600;2023-02-16T05:05:05;13.43;;;6.90;;
75087;SDS011;63664;44.868;40.600;2023-02-16T05:07:36;9.88;;;5.07;;
75087;SDS011;63664;44.868;40.600;2023-02-16T05:10:06;15.23;;;6.28;;
75087;SDS011;63664;44.868;40.600;2023-02-16T05:12:36;13.10;;;6.45;;
75087;SDS011;63664;44.868;40.600;2023-02-16T05:15:20;13.23;;;6.80;;
75087;SDS011;63664;44.868;40.600;2023-02-16T05:17:47;10.27;;;5.43;;
75087;SDS011;63664;44.868;40.600;2023-02-16T05:20:18;14.57;;;6.70;;
75087;SDS011;63664;44.868;40.600;2023-02-16T05:23:07;10.50;;;6.20;;
75087;SDS011;63664;44.868;40.600;2023-02-16T05:25:36;8.10;;;5.25;;
75087;SDS011;63664;44.868;40.600;2023-02-16T05:28:02;5.38;;;3.75;;
75087;SDS011;63664;44.868;40.600;2023-02-16T05:30:32;8.48;;;4.70;;
75087;SDS011;63664;44.868;40.600;2023-02-16T05:32:58;11.52;;;4.97;;
75087;SDS011;63664;44.868;40.600;2023-02-16T05:35:24;9.23;;;4.75;;
75087;SDS011;63664;44.868;40.600;2023-02-16T05:37:54;7.72;;;5.10;;
75087;SDS011;63664;44.868;40.600;2023-02-16T05:40:25;10.25;;;5.22;;
75087;SDS011;63664;44.868;40.600;2023-02-16T05:42:52;12.70;;;5.72;;
75087;SDS011;63664;44.868;40.600;2023-02-16T05:45:19;13.52;;;5.50;;
75087;SDS011;63664;44.868;40.600;2023-02-16T05:47:46;5.93;;;3.60;;
75087;SDS011;63664;44.868;40.600;2023-02-16T05:50:17;10.13;;;4.45;;
75087;SDS011;63664;44.868;40.600;2023-02-16T05:52:46;5.88;;;3.30;;
75087;SDS011;63664;44.868;40.600;2023-02-16T05:55:13;7.10;;;3.90;;
75087;SDS011;63664;44.868;40.600;2023-02-16T05:57:39;7.85;;;3.97;;
75087;SDS011;63664;44.868;40.600;2023-02-16T06:00:05;6.35;;;3.70;;
75087;SDS011;63664;44.868;40.600;2023-02-16T06:02:33;8.18;;;4.45;;
75087;SDS011;63664;44.868;40.600;2023-02-16T06:04:59;6.38;;;3.58;;
75087;SDS011;63664;44.868;40.600;2023-02-16T06:07:25;6.20;;;3.85;;
75087;SDS011;63664;44.868;40.600;2023-02-16T06:09:51;4.80;;;3.10;;
75087;SDS011;63664;44.868;40.600;2023-02-16T06:12:20;4.97;;;3.00;;
75087;SDS011;63664;44.868;40.600;2023-02-16T06:14:48;6.95;;;3.67;;
75087;SDS011;63664;44.868;40.600;2023-02-16T06:17:17;4.43;;;2.88;;
75087;SDS011;63664;44.868;40.600;2023-02-16T06:19:45;6.03;;;3.33;;
75087;SDS011;63664;44.868;40.600;2023-02-16T06:22:14;6.22;;;3.40;;
75087;SDS011;63664;44.868;40.600;2023-02-16T06:24:41;5.22;;;3.33;;
75087;SDS011;63664;44.868;40.600;2023-02-16T06:27:09;5.68;;;3.13;;
75087;SDS011;63664;44.868;40.600;2023-02-16T06:29:38;6.05;;;3.13;;
75087;SDS011;63664;44.868;40.600;2023-02-16T06:32:07;7.10;;;3.80;;
75087;SDS011;63664;44.868;40.600;2023-02-16T06:34:33;5.15;;;3.25;;
75087;SDS011;63664;44.868;40.600;2023-02-16T06:37:02;6.18;;;3.10;;
75087;SDS011;63664;44.868;40.600;2023-02-16T06:39:29;7.80;;;3.28;;
75087;SDS011;63664;44.868;40.600;2023-02-16T06:41:57;6.68;;;3.40;;
75087;SDS011;63664;44.868;40.600;2023-02-16T06:44:24;7.13;;;3.63;;
75087;SDS011;63664;44.868;40.600;2023-02-16T06:46:50;5.60;;;3.22;;
75087;SDS011;63664;44.868;40.600;2023-02-16T06:49:18;5.30;;;3.15;;
75087;SDS011;63664;44.868;40.600;2023-02-16T06:51:48;5.85;;;3.15;;
75087;SDS011;63664;44.868;40.600;2023-02-16T06:54:19;6.80;;;3.85;;
75087;SDS011;63664;44.868;40.600;2023-02-16T06:56:45;6.90;;;3.75;;
75087;SDS011;63664;44.868;40.600;2023-02-16T06:59:12;4.43;;;2.60;;
75087;SDS011;63664;44.868;40.600;2023-02-16T07:01:43;7.88;;;2.97;;
75087;SDS011;63664;44.868;40.600;2023-02-16T07:04:09;8.98;;;3.97;;
75087;SDS011;63664;44.868;40.600;2023-02-16T07:06:35;5.53;;;3.20;;
75087;SDS011;63664;44.868;40.600;2023-02-16T07:09:02;9.65;;;3.53;;
75087;SDS011;63664;44.868;40.600;2023-02-16T07:11:33;6.53;;;3.97;;
75087;SDS011;63664;44.868;40.600;2023-02-16T07:14:03;6.28;;;3.55;;
75087;SDS011;63664;44.868;40.600;2023-02-16T07:16:34;6.93;;;3.60;;
75087;SDS011;63664;44.868;40.600;2023-02-16T07:19:02;6.60;;;3.60;;
75087;SDS011;63664;44.868;40.600;2023-02-16T07:21:32;4.30;;;2.47;;
75087;SDS011;63664;44.868;40.600;2023-02-16T07:24:01;4.82;;;3.08;;
75087;SDS011;63664;44.868;40.600;2023-02-16T07:26:28;5.00;;;2.58;;
75087;SDS011;63664;44.868;40.600;2023-02-16T07:28:56;6.55;;;3.58;;
75087;SDS011;63664;44.868;40.600;2023-02-16T07:31:23;5.88;;;3.67;;
75087;SDS011;63664;44.868;40.600;2023-02-16T07:33:52;5.53;;;3.03;;
75087;SDS011;63664;44.868;40.600;2023-02-16T07:36:18;4.80;;;2.95;;
75087;SDS011;63664;44.868;40.600;2023-02-16T07:38:47;3.67;;;2.40;;
75087;SDS011;63664;44.868;40.600;2023-02-16T07:41:15;2.95;;;2.30;;
75087;SDS011;63664;44.868;40.600;2023-02-16T07:43:44;4.68;;;2.47;;
75087;SDS011;63664;44.868;40.600;2023-02-16T07:46:13;4.03;;;2.40;;
75087;SDS011;63664;44.868;40.600;2023-02-16T07:48:39;3.72;;;2.25;;
75087;SDS011;63664;44.868;40.600;2023-02-16T07:51:08;5.07;;;2.67;;
75087;SDS011;63664;44.868;40.600;2023-02-16T07:53:38;4.18;;;2.50;;
75087;SDS011;63664;44.868;40.600;2023-02-16T07:56:04;3.90;;;2.20;;
75087;SDS011;63664;44.868;40.600;2023-02-16T07:58:33;4.13;;;2.03;;
75087;SDS011;63664;44.868;40.600;2023-02-16T08:01:10;3.13;;;1.95;;
75087;SDS011;63664;44.868;40.600;2023-02-16T08:03:37;2.78;;;2.15;;
75087;SDS011;63664;44.868;40.600;2023-02-16T08:06:05;2.40;;;1.52;;
75087;SDS011;63664;44.868;40.600;2023-02-16T08:08:36;4.93;;;2.78;;
75087;SDS011;63664;44.868;40.600;2023-02-16T08:11:07;2.33;;;1.75;;
75087;SDS011;63664;44.868;40.600;2023-02-16T08:13:37;2.17;;;1.38;;
75087;SDS011;63664;44.868;40.600;2023-02-16T08:18:46;2.83;;;1.85;;
75087;SDS011;63664;44.868;40.600;2023-02-16T08:21:16;3.55;;;1.90;;
75087;SDS011;63664;44.868;40.600;2023-02-16T08:23:54;2.78;;;1.92;;
75087;SDS011;63664;44.868;40.600;2023-02-16T08:26:23;5.22;;;2.55;;
75087;SDS011;63664;44.868;40.600;2023-02-16T08:28:55;4.63;;;2.65;;
75087;SDS011;63664;44.868;40.600;2023-02-16T08:31:23;5.10;;;2.80;;
75087;SDS011;63664;44.868;40.600;2023-02-16T08:33:52;4.70;;;2.90;;
75087;SDS011;63664;44.868;40.600;2023-02-16T08:36:21;6.90;;;2.75;;
75087;SDS011;63664;44.868;40.600;2023-02-16T08:38:57;3.90;;;2.08;;
75087;SDS011;63664;44.868;40.600;2023-02-16T08:41:31;4.40;;;2.28;;
75087;SDS011;63664;44.868;40.600;2023-02-16T08:44:02;4.15;;;2.20;;
75087;SDS011;63664;44.868;40.600;2023-02-16T08:46:33;3.08;;;1.95;;
75087;SDS011;63664;44.868;40.600;2023-02-16T08:49:05;5.13;;;2.35;;
75087;SDS011;63664;44.868;40.600;2023-02-16T08:51:34;5.45;;;2.58;;
75087;SDS011;63664;44.868;40.600;2023-02-16T08:54:08;5.05;;;2.70;;
75087;SDS011;63664;44.868;40.600;2023-02-16T08:56:43;2.75;;;2.00;;
75087;SDS011;63664;44.868;40.600;2023-02-16T08:59:16;4.60;;;2.40;;
75087;SDS011;63664;44.868;40.600;2023-02-16T09:01:44;5.13;;;1.90;;
75087;SDS011;63664;44.868;40.600;2023-02-16T09:04:14;4.65;;;2.40;;
75087;SDS011;63664;44.868;40.600;2023-02-16T09:06:43;6.35;;;3.33;;
75087;SDS011;63664;44.868;40.600;2023-02-16T09:09:13;4.45;;;2.17;;
75087;SDS011;63664;44.868;40.600;2023-02-16T09:11:40;3.22;;;2.08;;
75087;SDS011;63664;44.868;40.600;2023-02-16T09:14:09;4.50;;;2.33;;
75087;SDS011;63664;44.868;40.600;2023-02-16T09:16:35;3.80;;;2.45;;
75087;SDS011;63664;44.868;40.600;2023-02-16T09:19:12;3.92;;;2.55;;
75087;SDS011;63664;44.868;40.600;2023-02-16T09:21:40;4.88;;;2.75;;
75087;SDS011;63664;44.868;40.600;2023-02-16T09:24:12;4.13;;;2.33;;
75087;SDS011;63664;44.868;40.600;2023-02-16T09:26:38;6.25;;;2.22;;
75087;SDS011;63664;44.868;40.600;2023-02-16T09:31:37;3.50;;;2.13;;
75087;SDS011;63664;44.868;40.600;2023-02-16T09:34:07;5.78;;;2.63;;
75087;SDS011;63664;44.868;40.600;2023-02-16T09:39:11;4.55;;;2.20;;
75087;SDS011;63664;44.868;40.600;2023-02-16T09:47:35;4.65;;;2.10;;
75087;SDS011;63664;44.868;40.600;2023-02-16T09:50:12;3.30;;;2.17;;
75087;SDS011;63664;44.868;40.600;2023-02-16T09:55:40;3.25;;;2.33;;
75087;SDS011;63664;44.868;40.600;2023-02-16T09:58:26;3.80;;;2.33;;
75087;SDS011;63664;44.868;40.600;2023-02-16T10:01:06;6.90;;;2.92;;
75087;SDS011;63664;44.868;40.600;2023-02-16T10:09:44;3.97;;;2.47;;
75087;SDS011;63664;44.868;40.600;2023-02-16T10:12:17;4.45;;;2.58;;
75087;SDS011;63664;44.868;40.600;2023-02-16T10:14:53;4.10;;;2.40;;
75087;SDS011;63664;44.868;40.600;2023-02-16T10:22:41;3.63;;;2.10;;
75087;SDS011;63664;44.868;40.600;2023-02-16T10:28:18;3.83;;;2.67;;
75087;SDS011;63664;44.868;40.600;2023-02-16T10:31:00;4.78;;;2.85;;
75087;SDS011;63664;44.868;40.600;2023-02-16T10:36:54;6.53;;;2.60;;
75087;SDS011;63664;44.868;40.600;2023-02-16T10:39:15;11.13;;;2.47;;
75087;SDS011;63664;44.868;40.600;2023-02-16T10:47:41;6.50;;;3.00;;
75087;SDS011;63664;44.868;40.600;2023-02-16T10:52:58;4.93;;;2.90;;
75087;SDS011;63664;44.868;40.600;2023-02-16T10:55:29;4.18;;;2.58;;
75087;SDS011;63664;44.868;40.600;2023-02-16T10:57:59;6.07;;;3.20;;
75087;SDS011;63664;44.868;40.600;2023-02-16T11:00:36;5.93;;;2.83;;
75087;SDS011;63664;44.868;40.600;2023-02-16T11:03:07;6.13;;;3.38;;
75087;SDS011;63664;44.868;40.600;2023-02-16T11:05:37;6.00;;;3.17;;
75087;SDS011;63664;44.868;40.600;2023-02-16T11:08:06;6.70;;;3.22;;
75087;SDS011;63664;44.868;40.600;2023-02-16T11:15:57;4.78;;;3.42;;
75087;SDS011;63664;44.868;40.600;2023-02-16T11:18:30;5.07;;;3.33;;
75087;SDS011;63664;44.868;40.600;2023-02-16T11:21:03;5.35;;;3.03;;
75087;SDS011;63664;44.868;40.600;2023-02-16T11:23:39;5.90;;;3.30;;
75087;SDS011;63664;44.868;40.600;2023-02-16T11:28:40;5.63;;;2.90;;
75087;SDS011;63664;44.868;40.600;2023-02-16T11:34:07;6.15;;;3.47;;
75087;SDS011;63664;44.868;40.600;2023-02-16T11:36:59;5.18;;;2.90;;
75087;SDS011;63664;44.868;40.600;2023-02-16T11:39:49;3.70;;;2.28;;
75087;SDS011;63664;44.868;40.600;2023-02-16T11:42:22;5.50;;;3.05;;
75087;SDS011;63664;44.868;40.600;2023-02-16T11:44:57;4.72;;;3.00;;
75087;SDS011;63664;44.868;40.600;2023-02-16T11:47:29;4.93;;;3.03;;
75087;SDS011;63664;44.868;40.600;2023-02-16T11:52:44;7.30;;;2.95;;
75087;SDS011;63664;44.868;40.600;2023-02-16T11:55:27;5.03;;;2.88;;
75087;SDS011;63664;44.868;40.600;2023-02-16T11:58:25;4.40;;;2.75;;
75087;SDS011;63664;44.868;40.600;2023-02-16T12:03:57;8.82;;;3.38;;
75087;SDS011;63664;44.868;40.600;2023-02-16T12:12:32;5.32;;;2.78;;
75087;SDS011;63664;44.868;40.600;2023-02-16T12:15:17;5.28;;;2.90;;
75087;SDS011;63664;44.868;40.600;2023-02-16T12:34:18;6.28;;;3.38;;
75087;SDS011;63664;44.868;40.600;2023-02-16T12:45:21;4.93;;;2.80;;
75087;SDS011;63664;44.868;40.600;2023-02-16T12:47:57;5.53;;;2.90;;
75087;SDS011;63664;44.868;40.600;2023-02-16T12:50:44;3.92;;;2.53;;
75087;SDS011;63664;44.868;40.600;2023-02-16T12:56:00;8.38;;;3.45;;
75087;SDS011;63664;44.868;40.600;2023-02-16T12:58:36;4.72;;;2.75;;
75087;SDS011;63664;44.868;40.600;2023-02-16T13:01:12;11.48;;;3.08;;
75087;SDS011;63664;44.868;40.600;2023-02-16T13:12:45;5.40;;;2.75;;
75087;SDS011;63664;44.868;40.600;2023-02-16T13:15:09;5.97;;;3.30;;
75087;SDS011;63664;44.868;40.600;2023-02-16T13:17:40;3.88;;;2.58;;
75087;SDS011;63664;44.868;40.600;2023-02-16T13:20:13;4.25;;;2.35;;
75087;SDS011;63664;44.868;40.600;2023-02-16T13:22:50;6.45;;;3.60;;
75087;SDS011;63664;44.868;40.600;2023-02-16T13:45:19;12.55;;;5.88;;
75087;SDS011;63664;44.868;40.600;2023-02-16T13:47:55;7.75;;;3.95;;
75087;SDS011;63664;44.868;40.600;2023-02-16T13:50:28;5.80;;;3.22;;
75087;SDS011;63664;44.868;40.600;2023-02-16T13:53:08;4.57;;;2.67;;
75087;SDS011;63664;44.868;40.600;2023-02-16T13:55:49;5.50;;;2.92;;
75087;SDS011;63664;44.868;40.600;2023-02-16T13:58:42;10.30;;;5.82;;
75087;SDS011;63664;44.868;40.600;2023-02-16T14:03:55;5.10;;;3.53;;
75087;SDS011;63664;44.868;40.600;2023-02-16T14:16:53;4.85;;;3.35;;
75087;SDS011;63664;44.868;40.600;2023-02-16T14:19:22;7.18;;;3.63;;
75087;SDS011;63664;44.868;40.600;2023-02-16T14:21:50;7.63;;;3.80;;
75087;SDS011;63664;44.868;40.600;2023-02-16T14:29:31;7.07;;;3.53;;
75087;SDS011;63664;44.868;40.600;2023-02-16T14:35:19;9.00;;;3.38;;
75087;SDS011;63664;44.868;40.600;2023-02-16T14:40:22;6.30;;;4.07;;
75087;SDS011;63664;44.868;40.600;2023-02-16T14:43:22;9.60;;;4.22;;
75087;SDS011;63664;44.868;40.600;2023-02-16T14:52:02;7.65;;;4.32;;
75087;SDS011;63664;44.868;40.600;2023-02-16T14:57:42;13.20;;;5.15;;
75087;SDS011;63664;44.868;40.600;2023-02-16T15:03:20;6.78;;;3.30;;
75087;SDS011;63664;44.868;40.600;2023-02-16T15:05:52;7.85;;;3.85;;
75087;SDS011;63664;44.868;40.600;2023-02-16T15:08:30;11.07;;;4.70;;
75087;SDS011;63664;44.868;40.600;2023-02-16T15:11:23;9.45;;;5.28;;
75087;SDS011;63664;44.868;40.600;2023-02-16T15:13:50;13.77;;;6.68;;
75087;SDS011;63664;44.868;40.600;2023-02-16T15:16:21;26.08;;;8.50;;
75087;SDS011;63664;44.868;40.600;2023-02-16T15:18:54;14.82;;;7.03;;
75087;SDS011;63664;44.868;40.600;2023-02-16T15:21:23;14.20;;;6.38;;
75087;SDS011;63664;44.868;40.600;2023-02-16T15:23:54;16.35;;;6.65;;
75087;SDS011;63664;44.868;40.600;2023-02-16T15:26:25;16.77;;;6.72;;
75087;SDS011;63664;44.868;40.600;2023-02-16T15:28:55;16.95;;;7.53;;
75087;SDS011;63664;44.868;40.600;2023-02-16T15:31:32;13.75;;;5.93;;
75087;SDS011;63664;44.868;40.600;2023-02-16T15:34:05;10.95;;;5.85;;
75087;SDS011;63664;44.868;40.600;2023-02-16T15:36:41;11.15;;;6.30;;
75087;SDS011;63664;44.868;40.600;2023-02-16T15:39:15;13.63;;;6.32;;
75087;SDS011;63664;44.868;40.600;2023-02-16T15:44:32;12.90;;;6.00;;
75087;SDS011;63664;44.868;40.600;2023-02-16T15:47:07;15.05;;;7.57;;
75087;SDS011;63664;44.868;40.600;2023-02-16T15:49:40;16.75;;;7.35;;
75087;SDS011;63664;44.868;40.600;2023-02-16T15:52:10;13.70;;;6.22;;
75087;SDS011;63664;44.868;40.600;2023-02-16T15:54:41;20.13;;;9.05;;
75087;SDS011;63664;44.868;40.600;2023-02-16T15:57:23;18.55;;;7.90;;
75087;SDS011;63664;44.868;40.600;2023-02-16T15:59:58;16.48;;;7.03;;
75087;SDS011;63664;44.868;40.600;2023-02-16T16:02:38;15.70;;;6.80;;
75087;SDS011;63664;44.868;40.600;2023-02-16T16:07:46;15.30;;;7.32;;
75087;SDS011;63664;44.868;40.600;2023-02-16T16:10:23;19.33;;;7.93;;
75087;SDS011;63664;44.868;40.600;2023-02-16T16:13:26;17.10;;;7.18;;
75087;SDS011;63664;44.868;40.600;2023-02-16T16:15:48;10.65;;;4.97;;
75087;SDS011;63664;44.868;40.600;2023-02-16T16:21:02;9.60;;;4.85;;
75087;SDS011;63664;44.868;40.600;2023-02-16T16:23:51;16.13;;;6.63;;
75087;SDS011;63664;44.868;40.600;2023-02-16T16:26:27;18.95;;;7.75;;
75087;SDS011;63664;44.868;40.600;2023-02-16T16:28:56;16.95;;;8.73;;
75087;SDS011;63664;44.868;40.600;2023-02-16T16:33:59;43.90;;;18.40;;
75087;SDS011;63664;44.868;40.600;2023-02-16T16:36:33;36.83;;;16.45;;
75087;SDS011;63664;44.868;40.600;2023-02-16T16:44:37;16.90;;;7.40;;
75087;SDS011;63664;44.868;40.600;2023-02-16T16:49:57;15.40;;;7.82;;
75087;SDS011;63664;44.868;40.600;2023-02-16T16:54:58;12.15;;;7.18;;
75087;SDS011;63664;44.868;40.600;2023-02-16T16:57:26;10.32;;;6.28;;
75087;SDS011;63664;44.868;40.600;2023-02-16T17:02:26;10.05;;;5.00;;
75087;SDS011;63664;44.868;40.600;2023-02-16T17:04:59;10.85;;;6.00;;
75087;SDS011;63664;44.868;40.600;2023-02-16T17:07:25;17.35;;;7.43;;
75087;SDS011;63664;44.868;40.600;2023-02-16T17:09:51;12.85;;;6.20;;
75087;SDS011;63664;44.868;40.600;2023-02-16T17:12:22;10.45;;;6.97;;
75087;SDS011;63664;44.868;40.600;2023-02-16T17:14:53;16.17;;;7.53;;
75087;SDS011;63664;44.868;40.600;2023-02-16T17:17:22;11.60;;;6.05;;
75087;SDS011;63664;44.868;40.600;2023-02-16T17:19:50;13.27;;;5.65;;
75087;SDS011;63664;44.868;40.600;2023-02-16T17:22:19;13.77;;;5.68;;
75087;SDS011;63664;44.868;40.600;2023-02-16T17:24:46;10.07;;;6.15;;
75087;SDS011;63664;44.868;40.600;2023-02-16T17:27:18;13.77;;;6.30;;
75087;SDS011;63664;44.868;40.600;2023-02-16T17:29:44;11.55;;;5.78;;
75087;SDS011;63664;44.868;40.600;2023-02-16T17:32:11;15.05;;;6.70;;
75087;SDS011;63664;44.868;40.600;2023-02-16T17:34:40;13.57;;;5.70;;
75087;SDS011;63664;44.868;40.600;2023-02-16T17:37:06;11.50;;;5.75;;
75087;SDS011;63664;44.868;40.600;2023-02-16T17:39:33;10.88;;;6.60;;
75087;SDS011;63664;44.868;40.600;2023-02-16T17:42:02;12.52;;;5.68;;
75087;SDS011;63664;44.868;40.600;2023-02-16T17:44:31;8.50;;;4.45;;
75087;SDS011;63664;44.868;40.600;2023-02-16T17:49:28;8.57;;;3.72;;
75087;SDS011;63664;44.868;40.600;2023-02-16T17:51:54;10.65;;;4.55;;
75087;SDS011;63664;44.868;40.600;2023-02-16T17:54:20;7.47;;;3.90;;
75087;SDS011;63664;44.868;40.600;2023-02-16T17:56:46;8.65;;;3.95;;
75087;SDS011;63664;44.868;40.600;2023-02-16T17:59:19;5.38;;;3.47;;
75087;SDS011;63664;44.868;40.600;2023-02-16T18:01:45;8.18;;;3.85;;
75087;SDS011;63664;44.868;40.600;2023-02-16T18:04:12;7.20;;;3.83;;
75087;SDS011;63664;44.868;40.600;2023-02-16T18:06:38;6.25;;;3.75;;
75087;SDS011;63664;44.868;40.600;2023-02-16T18:09:11;8.20;;;4.10;;
75087;SDS011;63664;44.868;40.600;2023-02-16T18:11:51;5.22;;;3.28;;
75087;SDS011;63664;44.868;40.600;2023-02-16T18:14:22;6.00;;;3.72;;
75087;SDS011;63664;44.868;40.600;2023-02-16T18:16:54;8.73;;;4.22;;
75087;SDS011;63664;44.868;40.600;2023-02-16T18:19:24;6.55;;;4.20;;
75087;SDS011;63664;44.868;40.600;2023-02-16T18:21:54;7.32;;;3.38;;
75087;SDS011;63664;44.868;40.600;2023-02-16T18:24:24;10.02;;;4.68;;
75087;SDS011;63664;44.868;40.600;2023-02-16T18:26:50;8.43;;;3.90;;
75087;SDS011;63664;44.868;40.600;2023-02-16T18:29:19;8.57;;;4.63;;
75087;SDS011;63664;44.868;40.600;2023-02-16T18:31:45;6.28;;;3.40;;
75087;SDS011;63664;44.868;40.600;2023-02-16T18:34:14;6.97;;;3.90;;
75087;SDS011;63664;44.868;40.600;2023-02-16T18:36:40;6.75;;;3.95;;
75087;SDS011;63664;44.868;40.600;2023-02-16T18:39:07;7.72;;;4.65;;